createdAt,value
2018-07-23T00:02:26.834Z,77.60
2018-07-23T00:04:55.601Z,77.40
2018-07-23T00:07:24.447Z,76.61
2018-07-23T00:09:53.595Z,77.60
2018-07-23T00:12:22.664Z,77.71
2018-07-23T00:14:51.475Z,79.11
2018-07-23T00:17:20.636Z,79.98
2018-07-23T00:19:49.419Z,79.96
2018-07-23T00:22:18.367Z,80.59
2018-07-23T00:24:47.223Z,79.21
2018-07-23T00:27:15.882Z,81.49
2018-07-23T00:29:44.715Z,81.08
2018-07-23T00:32:13.522Z,80.15
2018-07-23T00:34:42.569Z,79.53
2018-07-23T00:37:11.476Z,81.83
2018-07-23T00:39:40.399Z,80.54
2018-07-23T00:42:09.171Z,82.35
2018-07-23T00:44:37.979Z,80.78
2018-07-23T00:47:06.854Z,80.33
2018-07-23T00:49:35.968Z,79.76
2018-07-23T00:52:04.829Z,83.65
2018-07-23T00:54:33.699Z,84.77
2018-07-23T00:57:02.808Z,83.20
2018-07-23T00:59:31.700Z,81.95
2018-07-23T01:02:00.468Z,84.55
2018-07-23T01:04:29.254Z,84.58
2018-07-23T01:06:58.017Z,84.87
2018-07-23T01:09:26.864Z,85.56
2018-07-23T01:11:55.747Z,86.17
2018-07-23T01:14:24.549Z,86.75
2018-07-23T01:16:53.201Z,84.29
2018-07-23T01:19:22.163Z,83.33
2018-07-23T01:21:50.951Z,84.42
2018-07-23T01:24:19.843Z,84.86
2018-07-23T01:26:48.655Z,83.51
2018-07-23T01:29:17.420Z,82.55
2018-07-23T01:31:46.230Z,83.59
2018-07-23T01:34:15.044Z,85.02
2018-07-23T01:36:43.915Z,86.73
2018-07-23T01:39:12.681Z,85.13
2018-07-23T01:41:41.485Z,85.85
2018-07-23T01:44:10.282Z,85.22
2018-07-23T01:46:39.112Z,84.72
2018-07-23T01:49:08.035Z,84.36
2018-07-23T01:51:36.875Z,84.18
2018-07-23T01:54:05.678Z,83.81
2018-07-23T01:56:34.477Z,85.01
2018-07-23T01:59:03.284Z,86.11
2018-07-23T02:01:32.184Z,86.24
2018-07-23T02:04:00.978Z,85.29
2018-07-23T02:06:29.879Z,86.62
2018-07-23T02:08:58.696Z,87.59
2018-07-23T02:11:33.463Z,87.67
2018-07-23T02:14:02.303Z,87.33
2018-07-23T02:16:31.156Z,86.19
2018-07-23T02:18:59.766Z,85.71
2018-07-23T02:21:28.576Z,86.05
2018-07-23T02:23:57.463Z,86.23
2018-07-23T02:26:26.443Z,85.32
2018-07-23T02:28:55.262Z,85.27
2018-07-23T02:31:24.089Z,85.58
2018-07-23T02:33:52.924Z,83.87
2018-07-23T02:36:21.727Z,83.58
2018-07-23T02:38:50.639Z,83.92
2018-07-23T02:41:19.469Z,84.96
2018-07-23T02:43:48.111Z,83.67
2018-07-23T02:46:17.277Z,82.50
2018-07-23T02:48:46.108Z,84.17
2018-07-23T02:51:14.954Z,84.83
2018-07-23T02:53:43.752Z,84.15
2018-07-23T02:56:12.524Z,83.78
2018-07-23T02:58:41.377Z,82.50
2018-07-23T03:01:10.194Z,82.96
2018-07-23T03:03:39.104Z,82.75
2018-07-23T03:06:07.914Z,82.49
2018-07-23T03:08:36.752Z,85.75
2018-07-23T03:11:05.423Z,84.45
2018-07-23T03:13:34.283Z,83.46
2018-07-23T03:16:02.978Z,83.18
2018-07-23T03:18:31.875Z,85.96
2018-07-23T03:21:00.667Z,83.38
2018-07-23T03:23:29.700Z,82.71
2018-07-23T03:25:58.408Z,84.51
2018-07-23T03:28:27.244Z,84.82
2018-07-23T03:30:56.371Z,83.86
2018-07-23T03:33:25.253Z,81.49
2018-07-23T03:35:54.111Z,82.49
2018-07-23T03:38:22.932Z,83.18
2018-07-23T03:40:51.829Z,83.77
2018-07-23T03:43:20.617Z,82.44
2018-07-23T03:45:55.627Z,84.59
2018-07-23T03:48:24.487Z,86.60
2018-07-23T03:50:53.399Z,85.01
2018-07-23T03:53:22.236Z,82.13
2018-07-23T03:55:51.129Z,81.54
2018-07-23T03:58:19.918Z,81.10
2018-07-23T04:00:48.839Z,83.17
2018-07-23T04:03:17.708Z,85.96
2018-07-23T04:05:46.370Z,86.43
2018-07-23T04:08:15.163Z,83.14
2018-07-23T04:10:43.998Z,82.35
2018-07-23T04:13:12.832Z,82.12
2018-07-23T04:15:41.744Z,82.43
2018-07-23T04:18:10.596Z,83.18
2018-07-23T04:20:39.429Z,84.31
2018-07-23T04:23:08.305Z,85.75
2018-07-23T04:25:37.164Z,84.67
2018-07-23T04:28:06.188Z,83.42
2018-07-23T04:30:35.017Z,82.43
2018-07-23T04:33:04.019Z,82.32
2018-07-23T04:35:32.907Z,84.02
2018-07-23T04:38:01.608Z,82.17
2018-07-23T04:40:30.547Z,82.34
2018-07-23T04:42:59.394Z,81.17
2018-07-23T04:45:34.311Z,79.92
2018-07-23T04:48:03.010Z,80.13
2018-07-23T04:50:31.908Z,85.29
2018-07-23T04:53:00.764Z,84.74
2018-07-23T04:55:29.555Z,86.70
2018-07-23T04:57:58.483Z,82.05
2018-07-23T05:00:27.265Z,79.35
2018-07-23T05:02:56.148Z,79.48
2018-07-23T05:05:24.827Z,79.92
2018-07-23T05:07:53.497Z,79.21
2018-07-23T05:10:22.317Z,80.14
2018-07-23T05:12:50.990Z,82.23
2018-07-23T05:15:19.855Z,82.74
2018-07-23T05:17:48.687Z,81.34
2018-07-23T05:20:17.520Z,81.44
2018-07-23T05:22:46.281Z,78.28
2018-07-23T05:25:15.136Z,79.91
2018-07-23T05:27:44.002Z,74.71
2018-07-23T05:30:12.872Z,76.37
2018-07-23T05:32:41.652Z,75.23
2018-07-23T05:35:10.840Z,72.66
2018-07-23T05:37:39.748Z,72.31
2018-07-23T05:40:08.652Z,77.94
2018-07-23T05:42:37.462Z,74.99
2018-07-23T05:45:06.469Z,72.84
2018-07-23T05:47:35.236Z,72.51
2018-07-23T05:50:04.866Z,74.12
2018-07-23T05:52:33.687Z,74.58
2018-07-23T05:55:02.542Z,69.83
2018-07-23T05:57:31.343Z,67.15
2018-07-23T06:00:00.161Z,66.98
2018-07-23T06:02:28.947Z,66.82
2018-07-23T06:04:58.237Z,67.04
2018-07-23T06:07:27.005Z,66.57
2018-07-23T06:09:55.884Z,66.44
2018-07-23T06:12:24.666Z,66.79
2018-07-23T06:14:53.571Z,65.55
2018-07-23T06:17:22.464Z,64.60
2018-07-23T06:19:51.252Z,65.07
2018-07-23T06:22:20.089Z,67.03
2018-07-23T06:24:48.943Z,66.81
2018-07-23T06:27:17.841Z,69.79
2018-07-23T06:29:46.955Z,68.05
2018-07-23T06:32:15.663Z,70.07
2018-07-23T06:34:44.389Z,64.49
2018-07-23T06:37:13.447Z,71.70
2018-07-23T06:39:42.238Z,66.76
2018-07-23T06:42:11.166Z,65.48
2018-07-23T06:44:39.956Z,64.36
2018-07-23T06:47:08.835Z,68.63
2018-07-23T06:49:37.636Z,70.29
2018-07-23T06:52:06.704Z,66.03
2018-07-23T06:54:35.622Z,63.35
2018-07-23T06:57:04.863Z,64.11
2018-07-23T06:59:33.869Z,60.88
2018-07-23T07:02:02.752Z,58.92
2018-07-23T07:04:31.476Z,59.69
2018-07-23T07:07:00.394Z,60.18
2018-07-23T07:09:29.196Z,57.98
2018-07-23T07:11:58.031Z,60.25
2018-07-23T07:14:26.865Z,58.47
2018-07-23T07:16:55.739Z,57.65
2018-07-23T07:19:24.615Z,57.16
2018-07-23T07:21:53.417Z,58.53
2018-07-23T07:24:22.727Z,61.07
2018-07-23T07:26:51.587Z,60.96
2018-07-23T07:29:20.501Z,58.21
2018-07-23T07:31:49.209Z,56.75
2018-07-23T07:34:18.055Z,56.34
2018-07-23T07:36:46.877Z,57.63
2018-07-23T07:39:15.770Z,59.96
2018-07-23T07:41:44.554Z,56.69
2018-07-23T07:44:13.539Z,57.25
2018-07-23T07:46:42.350Z,57.25
2018-07-23T07:49:11.183Z,56.08
2018-07-23T07:51:39.859Z,57.16
2018-07-23T07:54:08.814Z,55.99
2018-07-23T07:56:37.683Z,55.49
2018-07-23T07:59:06.640Z,53.09
2018-07-23T08:01:35.543Z,51.03
2018-07-23T08:04:04.475Z,50.91
2018-07-23T08:06:33.243Z,52.78
2018-07-23T08:09:02.188Z,50.57
2018-07-23T08:11:30.950Z,51.95
2018-07-23T08:13:59.784Z,49.63
2018-07-23T08:16:28.635Z,48.29
2018-07-23T08:18:57.430Z,53.47
2018-07-23T08:21:26.186Z,51.17
2018-07-23T08:23:55.032Z,49.99
2018-07-23T08:26:23.879Z,50.02
2018-07-23T08:28:52.720Z,50.00
2018-07-23T08:31:21.846Z,48.27
2018-07-23T08:33:50.760Z,48.15
2018-07-23T08:36:19.907Z,48.16
2018-07-23T08:38:48.697Z,46.58
2018-07-23T08:41:17.530Z,46.08
2018-07-23T08:43:46.347Z,46.65
2018-07-23T08:46:15.268Z,44.88
2018-07-23T08:48:44.057Z,45.37
2018-07-23T08:51:12.973Z,43.98
2018-07-23T08:53:41.625Z,45.24
2018-07-23T08:56:10.540Z,44.50
2018-07-23T08:58:39.387Z,43.51
2018-07-23T09:01:08.320Z,43.56
2018-07-23T09:03:37.151Z,45.18
2018-07-23T09:06:06.061Z,47.22
2018-07-23T09:08:35.109Z,46.84
2018-07-23T09:11:04.083Z,44.43
2018-07-23T09:13:32.979Z,43.88
2018-07-23T09:16:01.926Z,43.04
2018-07-23T09:18:30.889Z,43.63
2018-07-23T09:20:59.554Z,42.14
2018-07-23T09:23:28.647Z,40.33
2018-07-23T09:25:57.474Z,40.28
2018-07-23T09:28:26.343Z,42.06
2018-07-23T09:30:55.679Z,38.99
2018-07-23T09:33:25.298Z,39.23
2018-07-23T09:35:54.264Z,39.73
2018-07-23T09:38:23.427Z,44.59
2018-07-23T09:40:52.552Z,39.92
2018-07-23T09:43:21.386Z,40.37
2018-07-23T09:45:54.059Z,38.70
2018-07-23T09:48:22.805Z,36.92
2018-07-23T09:50:51.650Z,37.07
2018-07-23T09:53:20.498Z,38.25
2018-07-23T09:55:49.127Z,38.59
2018-07-23T09:58:18.233Z,37.85
2018-07-23T10:00:52.595Z,40.03
2018-07-23T10:03:21.671Z,40.24
2018-07-23T10:05:50.455Z,41.69
2018-07-23T10:08:19.287Z,39.73
2018-07-23T10:10:48.139Z,40.40
2018-07-23T10:13:17.263Z,41.38
2018-07-23T10:15:46.076Z,41.63
2018-07-23T10:18:15.247Z,41.51
2018-07-23T10:20:44.031Z,41.73
2018-07-23T10:23:13.167Z,41.11
2018-07-23T10:25:42.067Z,40.44
2018-07-23T10:28:10.891Z,39.78
2018-07-23T10:30:39.754Z,40.04
2018-07-23T10:33:08.644Z,42.25
2018-07-23T10:35:37.358Z,41.81
2018-07-23T10:38:06.179Z,40.50
2018-07-23T10:40:35.032Z,38.26
2018-07-23T10:43:03.850Z,38.23
2018-07-23T10:45:38.630Z,39.89
2018-07-23T10:48:07.500Z,39.19
2018-07-23T10:50:36.372Z,38.68
2018-07-23T10:53:05.195Z,37.71
2018-07-23T10:55:34.076Z,38.94
2018-07-23T10:58:02.920Z,37.74
2018-07-23T11:00:31.891Z,38.39
2018-07-23T11:03:00.747Z,37.42
2018-07-23T11:05:29.435Z,37.32
2018-07-23T11:07:58.568Z,38.65
2018-07-23T11:10:27.443Z,38.80
2018-07-23T11:12:56.283Z,36.93
2018-07-23T11:15:25.106Z,35.62
2018-07-23T11:17:53.859Z,35.41
2018-07-23T11:20:22.704Z,34.69
2018-07-23T11:22:51.516Z,34.67
2018-07-23T11:25:39.084Z,35.51
2018-07-23T11:27:49.624Z,34.25
2018-07-23T11:30:18.376Z,36.88
2018-07-23T11:32:47.187Z,36.30
2018-07-23T11:35:15.987Z,35.95
2018-07-23T11:37:44.887Z,34.82
2018-07-23T11:40:13.948Z,34.55
2018-07-23T11:42:42.777Z,34.00
2018-07-23T11:45:11.589Z,33.65
2018-07-23T11:47:40.432Z,35.04
2018-07-23T11:50:09.193Z,35.60
2018-07-23T11:52:38.197Z,34.21
2018-07-23T11:55:06.959Z,35.56
2018-07-23T11:57:35.616Z,35.19
2018-07-23T12:00:05.016Z,36.16
2018-07-23T12:02:33.935Z,36.19
2018-07-23T12:05:02.778Z,35.87
2018-07-23T12:07:31.617Z,35.90
2018-07-23T12:10:00.363Z,35.42
2018-07-23T12:12:29.222Z,34.45
2018-07-23T12:14:58.090Z,34.30
2018-07-23T12:17:26.866Z,34.43
2018-07-23T12:19:55.708Z,34.64
2018-07-23T12:22:24.457Z,33.58
2018-07-23T12:24:53.307Z,34.55
2018-07-23T12:27:22.172Z,34.63
2018-07-23T12:29:50.987Z,35.32
2018-07-23T12:32:19.877Z,35.05
2018-07-23T12:34:48.701Z,33.98
2018-07-23T12:37:17.493Z,34.27
2018-07-23T12:39:46.429Z,35.80
2018-07-23T12:42:15.160Z,35.54
2018-07-23T12:44:43.964Z,35.11
2018-07-23T12:47:12.833Z,35.45
2018-07-23T12:49:41.604Z,34.60
2018-07-23T12:52:10.331Z,35.09
2018-07-23T12:54:39.169Z,35.65
2018-07-23T12:57:08.006Z,34.38
2018-07-23T12:59:36.824Z,34.35
2018-07-23T13:02:05.508Z,33.12
2018-07-23T13:04:34.386Z,32.94
2018-07-23T13:07:03.198Z,33.65
2018-07-23T13:09:31.856Z,34.27
2018-07-23T13:12:00.750Z,33.75
2018-07-23T13:14:29.643Z,33.19
2018-07-23T13:16:58.524Z,33.52
2018-07-23T13:19:27.562Z,32.58
2018-07-23T13:21:56.406Z,32.51
2018-07-23T13:24:25.258Z,33.67
2018-07-23T13:26:54.179Z,34.11
2018-07-23T13:29:23.446Z,32.89
2018-07-23T13:31:52.336Z,33.22
2018-07-23T13:34:21.211Z,33.27
2018-07-23T13:36:49.916Z,32.74
2018-07-23T13:39:18.740Z,32.59
2018-07-23T13:41:47.639Z,33.65
2018-07-23T13:44:16.436Z,32.80
2018-07-23T13:46:45.299Z,31.99
2018-07-23T13:49:14.314Z,31.90
2018-07-23T13:51:43.217Z,31.46
2018-07-23T13:54:12.148Z,31.33
2018-07-23T13:56:40.817Z,31.65
2018-07-23T13:59:09.639Z,31.95
2018-07-23T14:01:38.462Z,32.30
2018-07-23T14:04:07.260Z,32.29
2018-07-23T14:06:36.205Z,32.54
2018-07-23T14:09:09.153Z,32.13
2018-07-23T14:11:38.099Z,30.96
2018-07-23T14:14:07.015Z,31.38
2018-07-23T14:16:35.894Z,30.66
2018-07-23T14:19:04.729Z,31.64
2018-07-23T14:21:33.560Z,32.00
2018-07-23T14:24:02.625Z,32.29
2018-07-23T14:26:31.234Z,31.12
2018-07-23T14:28:59.853Z,31.57
2018-07-23T14:31:28.739Z,32.21
2018-07-23T14:33:57.580Z,31.95
2018-07-23T14:36:26.546Z,31.25
2018-07-23T14:38:55.388Z,31.74
2018-07-23T14:41:24.163Z,31.70
2018-07-23T14:43:53.091Z,31.17
2018-07-23T14:46:21.896Z,31.28
2018-07-23T14:48:50.699Z,31.21
2018-07-23T14:51:19.452Z,31.68
2018-07-23T14:53:48.299Z,31.84
2018-07-23T14:56:17.183Z,32.22
2018-07-23T14:58:46.253Z,31.31
2018-07-23T15:01:15.030Z,31.41
2018-07-23T15:03:43.861Z,32.79
2018-07-23T15:06:13.060Z,32.20
2018-07-23T15:08:41.953Z,31.89
2018-07-23T15:11:10.683Z,31.74
2018-07-23T15:13:39.731Z,31.59
2018-07-23T15:16:08.631Z,31.89
2018-07-23T15:18:37.367Z,31.66
2018-07-23T15:21:06.308Z,31.12
2018-07-23T15:23:35.108Z,31.70
2018-07-23T15:26:04.052Z,33.11
2018-07-23T15:28:32.829Z,32.28
2018-07-23T15:31:01.627Z,31.91
2018-07-23T15:33:30.471Z,31.93
2018-07-23T15:35:59.319Z,32.42
2018-07-23T15:38:28.103Z,32.61
2018-07-23T15:40:56.932Z,32.67
2018-07-23T15:43:25.975Z,32.41
2018-07-23T15:45:59.799Z,31.80
2018-07-23T15:48:28.509Z,33.16
2018-07-23T15:50:57.342Z,33.29
2018-07-23T15:53:25.977Z,33.35
2018-07-23T15:55:54.881Z,33.77
2018-07-23T15:58:23.759Z,33.75
2018-07-23T16:00:52.616Z,33.16
2018-07-23T16:03:21.436Z,32.84
2018-07-23T16:05:50.294Z,34.28
2018-07-23T16:08:19.058Z,34.00
2018-07-23T16:10:47.919Z,33.35
2018-07-23T16:13:16.743Z,33.57
2018-07-23T16:15:45.495Z,33.34
2018-07-23T16:18:14.331Z,34.17
2018-07-23T16:20:43.246Z,34.23
2018-07-23T16:23:12.118Z,34.35
2018-07-23T16:25:40.798Z,34.01
2018-07-23T16:28:10.907Z,33.96
2018-07-23T16:30:39.770Z,34.39
2018-07-23T16:33:08.613Z,34.46
2018-07-23T16:35:37.487Z,34.46
2018-07-23T16:38:06.433Z,34.93
2018-07-23T16:40:35.242Z,35.07
2018-07-23T16:43:04.161Z,33.95
2018-07-23T16:45:33.023Z,34.47
2018-07-23T16:48:02.004Z,33.99
2018-07-23T16:50:30.788Z,34.18
2018-07-23T16:52:59.621Z,34.41
2018-07-23T16:55:28.703Z,35.55
2018-07-23T16:57:57.503Z,35.04
2018-07-23T17:00:26.514Z,34.89
2018-07-23T17:02:55.227Z,35.26
2018-07-23T17:05:24.072Z,36.37
2018-07-23T17:07:52.939Z,36.68
2018-07-23T17:10:21.779Z,36.19
2018-07-23T17:12:50.607Z,36.60
2018-07-23T17:15:19.523Z,35.63
2018-07-23T17:17:48.388Z,36.10
2018-07-23T17:20:17.183Z,36.70
2018-07-23T17:22:45.959Z,36.56
2018-07-23T17:25:14.939Z,36.64
2018-07-23T17:27:43.816Z,36.52
2018-07-23T17:30:12.671Z,37.00
2018-07-23T17:32:41.471Z,36.56
2018-07-23T17:35:10.304Z,36.48
2018-07-23T17:37:39.202Z,37.29
2018-07-23T17:40:08.167Z,36.58
2018-07-23T17:42:36.983Z,36.95
2018-07-23T17:45:05.853Z,37.45
2018-07-23T17:47:34.615Z,37.92
2018-07-23T17:50:03.700Z,37.17
2018-07-23T17:52:32.476Z,37.72
2018-07-23T17:55:01.364Z,37.40
2018-07-23T17:57:29.975Z,38.20
2018-07-23T17:59:58.789Z,38.47
2018-07-23T18:02:27.664Z,38.17
2018-07-23T18:04:56.525Z,39.38
2018-07-23T18:07:25.327Z,39.39
2018-07-23T18:09:54.158Z,39.94
2018-07-23T18:12:22.960Z,39.25
2018-07-23T18:14:51.848Z,39.65
2018-07-23T18:17:21.537Z,40.26
2018-07-23T18:19:50.383Z,40.74
2018-07-23T18:22:20.107Z,41.09
2018-07-23T18:24:48.961Z,41.36
2018-07-23T18:27:17.843Z,42.46
2018-07-23T18:29:46.474Z,41.63
2018-07-23T18:32:15.326Z,42.58
2018-07-23T18:34:44.039Z,42.59
2018-07-23T18:37:12.943Z,42.88
2018-07-23T18:39:41.777Z,42.76
2018-07-23T18:42:10.648Z,43.66
2018-07-23T18:44:39.467Z,43.96
2018-07-23T18:47:08.348Z,44.03
2018-07-23T18:49:51.002Z,45.48
2018-07-23T18:52:20.524Z,44.63
2018-07-23T18:54:51.620Z,45.91
2018-07-23T18:57:20.480Z,45.58
2018-07-23T18:59:49.413Z,44.76
2018-07-23T19:02:19.156Z,44.78
2018-07-23T19:04:48.014Z,45.24
2018-07-23T19:07:16.883Z,45.14
2018-07-23T19:09:45.672Z,45.41
2018-07-23T19:12:14.546Z,44.94
2018-07-23T19:14:43.323Z,45.06
2018-07-23T19:17:13.379Z,45.46
2018-07-23T19:19:42.294Z,45.17
2018-07-23T19:22:12.052Z,45.32
2018-07-23T19:24:41.013Z,46.14
2018-07-23T19:27:09.844Z,45.89
2018-07-23T19:29:38.835Z,46.59
2018-07-23T19:32:07.661Z,46.71
2018-07-23T19:34:36.518Z,47.32
2018-07-23T19:37:05.443Z,48.90
2018-07-23T19:39:34.278Z,49.61
2018-07-23T19:42:03.196Z,50.54
2018-07-23T19:44:32.034Z,50.14
2018-07-23T19:47:00.650Z,51.65
2018-07-23T19:49:29.412Z,53.24
2018-07-23T19:51:59.007Z,52.36
2018-07-23T19:54:28.091Z,54.62
2018-07-23T19:56:56.931Z,53.98
2018-07-23T19:59:26.142Z,55.50
2018-07-23T20:01:54.952Z,56.84
2018-07-23T20:04:23.704Z,56.50
2018-07-23T20:06:52.679Z,58.08
2018-07-23T20:09:21.441Z,59.44
2018-07-23T20:11:50.263Z,59.63
2018-07-23T20:14:18.861Z,60.35
2018-07-23T20:16:47.725Z,60.74
2018-07-23T20:19:16.628Z,61.15
2018-07-23T20:21:45.529Z,62.40
2018-07-23T20:24:14.343Z,62.86
2018-07-23T20:26:43.220Z,62.82
2018-07-23T20:29:11.997Z,64.04
2018-07-23T20:31:40.899Z,63.28
2018-07-23T20:34:09.722Z,64.58
2018-07-23T20:36:38.568Z,64.29
2018-07-23T20:39:08.017Z,64.43
2018-07-23T20:41:36.887Z,64.77
2018-07-23T20:44:05.895Z,64.71
2018-07-23T20:46:34.727Z,64.58
2018-07-23T20:49:03.591Z,65.45
2018-07-23T20:51:32.436Z,65.07
2018-07-23T20:54:01.240Z,65.84
2018-07-23T20:56:29.911Z,66.25
2018-07-23T20:58:58.593Z,65.76
2018-07-23T21:01:27.183Z,65.96
2018-07-23T21:03:56.041Z,66.06
2018-07-23T21:06:24.808Z,65.54
2018-07-23T21:08:53.686Z,66.14
2018-07-23T21:11:22.504Z,66.07
2018-07-23T21:13:51.370Z,65.44
2018-07-23T21:16:20.171Z,66.05
2018-07-23T21:18:48.993Z,66.44
2018-07-23T21:21:17.887Z,66.07
2018-07-23T21:23:46.722Z,66.87
2018-07-23T21:26:15.580Z,65.97
2018-07-23T21:28:44.399Z,66.93
2018-07-23T21:31:13.358Z,66.86
2018-07-23T21:33:42.253Z,67.45
2018-07-23T21:36:11.035Z,67.31
2018-07-23T21:38:39.903Z,68.07
2018-07-23T21:41:08.687Z,67.14
2018-07-23T21:43:37.442Z,66.81
2018-07-23T21:46:06.488Z,67.47
2018-07-23T21:48:35.362Z,67.16
2018-07-23T21:51:03.979Z,67.76
2018-07-23T21:53:32.794Z,68.07
2018-07-23T21:56:01.699Z,68.49
2018-07-23T21:58:30.602Z,68.72
2018-07-23T22:00:59.467Z,68.45
2018-07-23T22:03:28.130Z,69.16
2018-07-23T22:05:56.955Z,68.54
2018-07-23T22:08:25.736Z,68.65
2018-07-23T22:10:54.641Z,68.53
2018-07-23T22:13:23.474Z,68.80
2018-07-23T22:15:52.328Z,68.73
2018-07-23T22:18:21.159Z,68.87
2018-07-23T22:20:49.991Z,69.18
2018-07-23T22:23:18.850Z,69.31
2018-07-23T22:25:47.729Z,68.66
2018-07-23T22:28:16.511Z,69.18
2018-07-23T22:30:45.475Z,69.37
2018-07-23T22:33:14.352Z,70.29
2018-07-23T22:35:43.260Z,70.11
2018-07-23T22:38:12.057Z,69.75
2018-07-23T22:40:40.886Z,70.14
2018-07-23T22:43:09.655Z,69.76
2018-07-23T22:45:44.480Z,70.28
2018-07-23T22:48:13.178Z,70.24
2018-07-23T22:50:42.018Z,69.93
2018-07-23T22:53:10.840Z,70.17
2018-07-23T22:55:39.665Z,70.24
2018-07-23T22:58:08.507Z,71.13
2018-07-23T23:00:37.719Z,70.11
2018-07-23T23:03:06.619Z,71.31
2018-07-23T23:05:35.422Z,71.89
2018-07-23T23:08:04.300Z,72.06
2018-07-23T23:10:33.131Z,71.86
2018-07-23T23:13:02.043Z,71.50
2018-07-23T23:15:30.864Z,72.51
2018-07-23T23:17:59.736Z,72.41
2018-07-23T23:20:28.501Z,71.82
2018-07-23T23:22:57.320Z,71.97
2018-07-23T23:25:26.211Z,72.70
2018-07-23T23:27:55.125Z,74.29
2018-07-23T23:30:24.024Z,72.30
2018-07-23T23:32:52.912Z,72.60
2018-07-23T23:35:21.697Z,73.02
2018-07-23T23:37:50.584Z,75.11
2018-07-23T23:40:19.384Z,75.00
2018-07-23T23:42:48.157Z,73.48
2018-07-23T23:45:17.066Z,73.92
2018-07-23T23:47:45.847Z,73.53
2018-07-23T23:50:14.716Z,73.92
2018-07-23T23:52:43.584Z,75.12
2018-07-23T23:55:12.479Z,74.82
2018-07-23T23:57:41.225Z,73.42
